Time;durP1;ratioP1;P1;durP2;ratioP2;P2;SDS_P1;SDS_P2;PMS_P1;PMS_P2;Temp;Humidity;BMP_temperature;BMP_pressure;BME280_temperature;BME280_humidity;BME280_pressure;Samples;Min_cycle;Max_cycle;Signal;HPM_P1;HPM_P2
2021/09/29 00:01:43;;;;;;;3.25;1.55;;;;;;;18.72;44.29;101381.00;4990457;28;20061;-74
2021/09/29 00:04:10;;;;;;;4.07;1.67;;;;;;;18.70;44.50;101380.28;4987538;28;20053;-74
2021/09/29 00:06:36;;;;;;;4.43;1.50;;;;;;;18.68;44.71;101383.19;4990167;28;20145;-74
2021/09/29 00:09:03;;;;;;;4.03;1.42;;;;;;;18.67;44.28;101377.84;4988732;28;20135;-75
2021/09/29 00:11:30;;;;;;;3.55;1.52;;;;;;;18.66;44.51;101370.59;4990786;28;20058;-75
2021/09/29 00:13:57;;;;;;;3.08;1.20;;;;;;;18.63;43.93;101372.59;4990764;28;20058;-75
2021/09/29 00:16:23;;;;;;;3.67;1.60;;;;;;;18.63;44.23;101374.47;4994065;28;20694;-74
2021/09/29 00:18:50;;;;;;;3.40;1.70;;;;;;;18.62;44.41;101368.09;4992730;28;20050;-75
2021/09/29 00:21:17;;;;;;;3.67;1.60;;;;;;;18.62;44.35;101370.00;4992458;28;20109;-75
2021/09/29 00:23:44;;;;;;;2.20;1.35;;;;;;;18.61;44.34;101360.03;4989855;28;20055;-75
2021/09/29 00:26:12;;;;;;;4.13;1.45;;;;;;;18.59;44.35;101354.66;4993734;28;20123;-75
2021/09/29 00:28:39;;;;;;;3.53;1.40;;;;;;;18.58;44.38;101361.16;4992698;28;20054;-75
2021/09/29 00:31:05;;;;;;;3.78;1.48;;;;;;;18.58;44.37;101363.91;4993275;28;20049;-75
2021/09/29 00:33:37;;;;;;;4.05;1.58;;;;;;;18.57;44.20;101358.56;4992476;28;20054;-74
2021/09/29 00:36:03;;;;;;;1.95;1.23;;;;;;;18.56;44.27;101356.78;4993248;28;20066;-75
2021/09/29 00:38:31;;;;;;;3.38;1.52;;;;;;;18.56;44.71;101359.53;4959732;28;20085;-75
2021/09/29 00:40:59;;;;;;;5.15;1.60;;;;;;;18.54;44.42;101348.66;4993604;28;20097;-75
2021/09/29 00:43:25;;;;;;;3.63;1.52;;;;;;;18.52;44.48;101341.59;4992199;28;20081;-75
2021/09/29 00:45:53;;;;;;;4.43;1.58;;;;;;;18.52;44.53;101344.34;4991497;28;20077;-75
2021/09/29 00:48:20;;;;;;;3.05;1.40;;;;;;;18.48;44.61;101335.50;4993367;28;20064;-75
2021/09/29 00:50:46;;;;;;;2.70;1.35;;;;;;;18.48;45.04;101340.13;4993328;28;20452;-75
2021/09/29 00:53:13;;;;;;;3.40;1.60;;;;;;;18.46;44.78;101329.25;4997180;28;20054;-75
2021/09/29 00:55:39;;;;;;;3.53;1.30;;;;;;;18.45;44.63;101335.75;4991782;28;20081;-74
2021/09/29 00:58:06;;;;;;;4.18;1.55;;;;;;;18.44;44.56;101323.06;4992675;28;20100;-75
2021/09/29 01:00:33;;;;;;;3.78;1.20;;;;;;;18.44;44.99;101330.44;4992864;28;20144;-75
2021/09/29 01:03:01;;;;;;;3.40;1.50;;;;;;;18.43;44.71;101325.94;4993044;28;20054;-74
2021/09/29 01:05:29;;;;;;;4.03;1.83;;;;;;;18.43;44.86;101320.44;4984241;28;20054;-74
2021/09/29 01:08:18;;;;;;;4.38;2.08;;;;;;;18.39;44.89;101322.59;4994340;28;20081;-75
2021/09/29 01:11:33;;;;;;;3.67;1.70;;;;;;;18.31;45.18;101305.94;4986040;28;20115;-75
2021/09/29 01:14:12;;;;;;;3.67;1.75;;;;;;;18.36;44.77;101314.66;4918596;29;20051;-74
2021/09/29 01:16:39;;;;;;;3.85;1.60;;;;;;;18.32;44.61;101309.56;4979897;28;20501;-75
2021/09/29 01:19:34;;;;;;;2.85;1.63;;;;;;;18.33;44.82;101306.66;4991639;28;20137;-75
2021/09/29 01:22:09;;;;;;;3.47;1.55;;;;;;;18.30;44.78;101301.44;4987812;28;20536;-75
2021/09/29 01:24:43;;;;;;;3.45;1.70;;;;;;;18.28;45.19;101298.00;4991729;28;20050;-75
2021/09/29 01:27:10;;;;;;;3.20;1.30;;;;;;;18.23;45.05;101290.16;4985228;28;20050;-75
2021/09/29 01:29:37;;;;;;;5.10;1.50;;;;;;;18.22;44.77;101282.03;4990047;28;20455;-75
2021/09/29 01:32:06;;;;;;;4.85;1.70;;;;;;;18.21;44.76;101281.16;4993227;28;20077;-75
2021/09/29 01:34:33;;;;;;;4.00;1.60;;;;;;;18.18;44.81;101277.84;4991611;28;20058;-75
2021/09/29 01:37:04;;;;;;;3.67;1.60;;;;;;;18.14;44.80;101269.00;4992512;28;20066;-75
2021/09/29 01:39:32;;;;;;;4.35;1.70;;;;;;;18.13;44.88;101269.13;4991296;28;20070;-75
2021/09/29 01:41:59;;;;;;;3.58;1.60;;;;;;;18.09;44.80;101254.84;4978742;28;20061;-75
2021/09/29 01:44:26;;;;;;;3.67;1.73;;;;;;;18.09;44.93;101262.19;4990669;28;20571;-74
2021/09/29 01:46:53;;;;;;;4.18;1.50;;;;;;;18.07;45.29;101256.84;4992221;28;20735;-75
2021/09/29 01:49:41;;;;;;;3.28;1.60;;;;;;;18.07;45.34;101256.84;4978099;28;20082;-74
2021/09/29 01:52:09;;;;;;;3.13;1.65;;;;;;;18.05;45.27;101249.75;4989714;28;20105;-74
2021/09/29 01:54:41;;;;;;;4.30;1.67;;;;;;;18.05;45.44;101247.00;4993206;28;20050;-75
2021/09/29 01:57:10;;;;;;;2.83;1.50;;;;;;;18.03;45.28;101249.91;4986626;28;20054;-74
2021/09/29 01:59:38;;;;;;;3.53;1.50;;;;;;;18.02;45.22;101242.66;4990337;28;20073;-75
2021/09/29 02:02:05;;;;;;;4.00;1.45;;;;;;;18.01;45.54;101238.19;4991069;28;20141;-74
2021/09/29 02:04:32;;;;;;;3.50;1.25;;;;;;;18.00;45.27;101241.06;4991167;28;20078;-75
2021/09/29 02:06:59;;;;;;;4.13;1.88;;;;;;;18.00;45.64;101233.69;4989220;28;20082;-75
2021/09/29 02:09:27;;;;;;;3.47;1.45;;;;;;;18.01;45.56;101234.56;4987591;28;20105;-75
2021/09/29 02:11:56;;;;;;;3.15;1.42;;;;;;;18.00;45.66;101230.06;4991515;28;20050;-74
2021/09/29 02:14:23;;;;;;;3.97;1.75;;;;;;;17.98;45.65;101224.72;4989316;28;20050;-75
2021/09/29 02:16:53;;;;;;;7.05;1.70;;;;;;;17.99;45.61;101231.09;4980699;28;20133;-75
2021/09/29 02:19:20;;;;;;;3.33;1.40;;;;;;;17.97;45.16;101219.34;4990837;28;20050;-75
2021/09/29 02:21:47;;;;;;;2.95;1.52;;;;;;;17.96;45.65;101221.22;4992212;28;20611;-75
2021/09/29 02:24:14;;;;;;;4.05;1.48;;;;;;;17.96;45.27;101223.97;4989646;28;20153;-74
2021/09/29 02:26:41;;;;;;;2.80;1.40;;;;;;;17.96;45.18;101225.84;4991406;28;20038;-74
2021/09/29 02:29:09;;;;;;;3.58;1.55;;;;;;;17.96;45.58;101223.97;4991152;28;20105;-74
2021/09/29 02:31:36;;;;;;;3.20;1.50;;;;;;;17.95;45.86;101225.03;4976434;28;20512;-75
2021/09/29 02:34:03;;;;;;;3.30;1.63;;;;;;;17.96;45.88;101223.97;4991140;28;20047;-75
2021/09/29 02:36:30;;;;;;;2.92;1.38;;;;;;;17.94;45.36;101217.78;4976321;28;20042;-74
2021/09/29 02:38:57;;;;;;;3.40;1.58;;;;;;;17.96;45.90;101214.88;4990474;28;20141;-75
2021/09/29 02:41:25;;;;;;;2.85;1.35;;;;;;;17.97;45.50;101211.13;4990593;28;20108;-75
2021/09/29 02:43:52;;;;;;;3.78;1.50;;;;;;;17.96;45.83;101215.75;4973837;28;20124;-74
2021/09/29 02:46:19;;;;;;;4.30;1.50;;;;;;;17.97;45.75;101198.25;4989675;28;20405;-76
2021/09/29 02:48:46;;;;;;;3.72;1.50;;;;;;;17.98;45.74;101201.88;4991034;28;20058;-75
2021/09/29 02:51:12;;;;;;;3.35;1.50;;;;;;;17.98;45.69;101202.72;4990659;28;20073;-74
2021/09/29 02:53:39;;;;;;;4.07;1.52;;;;;;;17.98;45.57;101201.88;4976234;28;20078;-75
2021/09/29 02:56:06;;;;;;;3.28;1.55;;;;;;;17.97;45.63;101198.25;4989186;28;20117;-75
2021/09/29 02:58:32;;;;;;;3.92;1.73;;;;;;;17.97;45.97;101192.75;4989836;28;20105;-74
2021/09/29 03:01:00;;;;;;;3.40;1.80;;;;;;;17.98;45.94;101200.00;4984755;28;20559;-75
2021/09/29 03:03:28;;;;;;;2.92;1.55;;;;;;;17.97;45.91;101190.00;4989055;28;20060;-75
2021/09/29 03:05:55;;;;;;;2.63;1.35;;;;;;;17.98;45.84;101196.38;4987922;28;20073;-75
2021/09/29 03:08:21;;;;;;;2.90;1.30;;;;;;;17.97;45.69;101197.38;4989317;28;20075;-74
2021/09/29 03:10:48;;;;;;;4.55;1.60;;;;;;;17.97;45.89;101186.38;4990121;28;20145;-75
2021/09/29 03:13:33;;;;;;;5.72;1.85;;;;;;;17.99;46.03;101196.22;4987884;28;20049;-74
2021/09/29 03:15:59;;;;;;;3.85;1.60;;;;;;;17.96;45.88;101188.25;4983436;28;20058;-75
2021/09/29 03:18:26;;;;;;;3.85;1.63;;;;;;;17.97;45.41;101192.75;4990122;28;20057;-75
2021/09/29 03:20:53;;;;;;;3.83;1.80;;;;;;;17.97;45.46;101189.13;4991219;28;20050;-74
2021/09/29 03:23:19;;;;;;;4.03;1.70;;;;;;;17.97;46.01;101187.25;4989570;28;20050;-74
2021/09/29 03:25:46;;;;;;;3.45;1.42;;;;;;;17.98;45.78;101185.38;4990575;28;20485;-74
2021/09/29 03:28:13;;;;;;;4.32;1.60;;;;;;;17.97;45.93;101175.41;4971745;28;20141;-75
2021/09/29 03:30:39;;;;;;;3.65;1.70;;;;;;;17.97;45.52;101186.38;4990086;28;20078;-75
2021/09/29 03:33:07;;;;;;;4.53;1.55;;;;;;;17.96;45.69;101180.03;4988866;28;20468;-75
2021/09/29 03:35:35;;;;;;;4.72;1.52;;;;;;;17.98;46.10;101174.38;4990581;28;20058;-75
2021/09/29 03:38:02;;;;;;;3.80;1.70;;;;;;;17.98;45.57;101174.38;4970847;28;20066;-75
2021/09/29 03:40:29;;;;;;;3.53;1.48;;;;;;;17.95;45.75;101170.06;4990922;28;20133;-75
2021/09/29 03:42:56;;;;;;;3.78;1.65;;;;;;;17.94;45.53;101162.84;4972584;28;20069;-75
2021/09/29 03:45:22;;;;;;;2.78;1.35;;;;;;;17.95;45.77;101164.56;4990805;28;20050;-74
2021/09/29 03:47:49;;;;;;;3.15;1.80;;;;;;;17.94;46.00;101156.47;4983430;28;20051;-75
2021/09/29 03:50:16;;;;;;;4.85;1.83;;;;;;;17.93;46.03;101157.47;4989042;28;20074;-75
2021/09/29 03:52:42;;;;;;;4.82;1.70;;;;;;;17.93;45.86;101154.72;4989961;28;20157;-75
2021/09/29 03:55:09;;;;;;;4.10;1.80;;;;;;;17.93;45.58;101152.84;4990046;28;20470;-75
2021/09/29 03:57:37;;;;;;;3.15;1.60;;;;;;;17.92;45.72;101153.00;4988645;28;20085;-75
2021/09/29 04:00:07;;;;;;;3.17;1.70;;;;;;;17.94;45.86;101150.97;4971992;28;20067;-74
2021/09/29 04:02:34;;;;;;;4.25;1.48;;;;;;;17.90;45.42;101139.38;4971395;28;20082;-74
2021/09/29 04:05:01;;;;;;;3.38;1.75;;;;;;;17.89;45.51;101134.91;4989073;28;20054;-75
2021/09/29 04:07:27;;;;;;;3.78;1.63;;;;;;;17.87;45.76;101145.19;4988071;28;20054;-75
2021/09/29 04:09:54;;;;;;;3.63;1.77;;;;;;;17.86;45.90;101144.31;4982000;28;20042;-75
2021/09/29 04:12:21;;;;;;;4.18;1.90;;;;;;;17.85;45.78;101139.84;4990011;28;20051;-75
2021/09/29 04:14:49;;;;;;;5.68;1.98;;;;;;;17.85;46.03;101144.47;4989908;28;20046;-74
2021/09/29 04:17:15;;;;;;;5.40;1.92;;;;;;;17.83;46.08;101139.09;4989513;28;20054;-75
2021/09/29 04:19:42;;;;;;;4.43;1.70;;;;;;;17.81;45.67;101138.38;4987682;28;20142;-75
2021/09/29 04:22:10;;;;;;;4.18;1.83;;;;;;;17.80;45.62;101135.75;4989499;28;20078;-74
2021/09/29 04:24:41;;;;;;;3.75;1.88;;;;;;;17.80;45.75;101136.63;4986846;28;20073;-75
2021/09/29 04:27:08;;;;;;;3.83;1.70;;;;;;;17.77;45.93;101136.06;4988534;28;20579;-75
2021/09/29 04:29:36;;;;;;;3.75;1.80;;;;;;;17.76;46.10;101134.31;4985658;28;20051;-74
2021/09/29 04:32:03;;;;;;;2.75;1.90;;;;;;;17.73;45.71;101129.97;4988094;28;20093;-75
2021/09/29 04:34:30;;;;;;;3.35;1.90;;;;;;;17.71;45.92;101131.97;4987900;28;20078;-75
2021/09/29 04:36:57;;;;;;;4.40;1.80;;;;;;;17.69;46.15;101131.28;4991174;28;20050;-75
2021/09/29 04:39:25;;;;;;;3.25;1.58;;;;;;;17.68;45.91;101132.28;4986617;28;20078;-75
2021/09/29 04:41:51;;;;;;;4.22;1.77;;;;;;;17.68;45.68;101134.16;4991887;28;20047;-75
2021/09/29 04:44:18;;;;;;;5.85;1.95;;;;;;;17.66;45.90;101131.56;4989099;28;20062;-75
2021/09/29 04:46:45;;;;;;;4.40;2.00;;;;;;;17.64;46.23;101130.81;4986425;28;20082;-76
2021/09/29 04:49:11;;;;;;;4.70;2.05;;;;;;;17.64;46.07;101127.19;4979892;28;20487;-75
2021/09/29 04:51:38;;;;;;;3.50;1.75;;;;;;;17.63;45.79;101133.69;4982542;28;20719;-75
2021/09/29 04:54:05;;;;;;;4.57;1.98;;;;;;;17.61;46.10;101128.34;4981933;28;20137;-75
2021/09/29 04:56:32;;;;;;;4.63;2.25;;;;;;;17.59;45.86;101126.72;4989366;28;20055;-76
2021/09/29 04:58:59;;;;;;;5.55;2.42;;;;;;;17.56;45.99;101124.25;4979063;28;20116;-75
2021/09/29 05:01:26;;;;;;;5.30;2.20;;;;;;;17.53;46.03;101119.94;4992979;28;20096;-75
2021/09/29 05:03:54;;;;;;;3.40;1.98;;;;;;;17.52;46.36;101126.44;4992098;28;20054;-75
2021/09/29 05:06:21;;;;;;;4.50;2.45;;;;;;;17.48;46.04;101114.84;4975264;28;20420;-75
2021/09/29 05:08:51;;;;;;;3.20;1.70;;;;;;;17.49;46.20;101118.47;4993368;28;20046;-75
2021/09/29 05:11:17;;;;;;;3.33;1.88;;;;;;;17.45;46.40;101117.03;4998880;28;20058;-75
2021/09/29 05:13:45;;;;;;;3.75;2.20;;;;;;;17.44;46.36;101109.81;4979543;28;20101;-75
2021/09/29 05:16:12;;;;;;;3.97;1.98;;;;;;;17.41;46.16;101105.44;4998026;28;20440;-75
2021/09/29 05:18:39;;;;;;;4.15;1.90;;;;;;;17.40;46.08;101108.31;4993305;28;20043;-75
2021/09/29 05:21:06;;;;;;;6.32;2.00;;;;;;;17.39;46.42;101106.59;4994286;28;20051;-75
2021/09/29 05:23:33;;;;;;;4.20;1.80;;;;;;;17.38;46.06;101102.09;5003321;28;20497;-75
2021/09/29 05:26:00;;;;;;;3.95;2.03;;;;;;;17.37;46.69;101105.88;4992834;28;20112;-75
2021/09/29 05:28:32;;;;;;;4.53;2.20;;;;;;;17.40;46.38;101097.34;4992236;28;20050;-75
2021/09/29 05:30:58;;;;;;;3.47;1.90;;;;;;;17.35;46.41;101103.28;5001314;28;20077;-75
2021/09/29 05:33:25;;;;;;;4.05;1.83;;;;;;;17.36;46.26;101105.00;4992373;28;20050;-75
2021/09/29 05:35:53;;;;;;;4.57;1.98;;;;;;;17.39;46.25;101098.34;4992370;28;20858;-75
2021/09/29 05:38:20;;;;;;;3.75;2.00;;;;;;;17.37;46.29;101090.28;4993155;28;20125;-74
2021/09/29 05:40:50;;;;;;;4.90;2.20;;;;;;;17.40;46.89;101086.38;4992220;28;20112;-77
2021/09/29 05:43:17;;;;;;;3.53;2.13;;;;;;;17.37;46.51;101090.28;4988722;28;20082;-74
2021/09/29 05:45:44;;;;;;;4.72;2.25;;;;;;;17.38;46.51;101092.00;4987484;28;20710;-74
2021/09/29 05:48:20;;;;;;;4.78;2.33;;;;;;;17.42;46.54;101096.22;4994333;28;20140;-75
2021/09/29 05:50:47;;;;;;;4.38;1.92;;;;;;;17.40;46.70;101094.59;4974203;28;20121;-75
2021/09/29 05:53:13;;;;;;;4.60;2.00;;;;;;;17.41;46.50;101088.09;4992925;28;20043;-73
2021/09/29 05:55:40;;;;;;;5.68;2.20;;;;;;;17.41;46.63;101088.97;4987233;28;20050;-74
2021/09/29 05:58:07;;;;;;;3.35;2.00;;;;;;;17.42;46.86;101085.22;4959509;28;20062;-74
2021/09/29 06:00:36;;;;;;;6.22;2.55;;;;;;;17.45;46.91;101087.69;4991430;28;20516;-75
2021/09/29 06:03:03;;;;;;;4.43;2.08;;;;;;;17.44;46.93;101094.19;4992427;28;20540;-74
2021/09/29 06:05:29;;;;;;;4.45;2.17;;;;;;;17.45;47.07;101090.44;4990257;28;20046;-74
2021/09/29 06:07:56;;;;;;;5.20;2.00;;;;;;;17.46;47.03;101097.66;4952340;28;20197;-75
2021/09/29 06:10:23;;;;;;;4.22;1.83;;;;;;;17.48;46.83;101100.25;4990591;28;20117;-75
2021/09/29 06:12:50;;;;;;;3.70;1.80;;;;;;;17.49;46.95;101096.50;4983681;28;20057;-74
2021/09/29 06:15:21;;;;;;;5.05;2.00;;;;;;;17.52;46.98;101098.97;4986837;28;20460;-74
2021/09/29 06:18:03;;;;;;;5.10;1.92;;;;;;;17.55;47.40;101100.56;4988882;28;20073;-73
2021/09/29 06:20:33;;;;;;;5.32;2.00;;;;;;;17.57;47.27;101104.03;4972899;28;20089;-75
2021/09/29 06:23:00;;;;;;;5.00;2.42;;;;;;;17.60;47.51;101103.75;4972898;28;20475;-75
2021/09/29 06:25:28;;;;;;;4.43;2.13;;;;;;;17.62;47.08;101110.03;4989554;28;20463;-75
2021/09/29 06:27:56;;;;;;;4.22;2.08;;;;;;;17.63;47.49;101109.84;4988128;28;20046;-75
2021/09/29 06:30:22;;;;;;;4.40;1.70;;;;;;;17.65;47.56;101109.72;4988314;28;20464;-75
2021/09/29 06:32:49;;;;;;;4.38;1.85;;;;;;;17.68;47.46;101109.44;4988659;28;20042;-74
2021/09/29 06:35:15;;;;;;;4.07;2.00;;;;;;;17.69;47.76;101103.81;4990270;28;20465;-77
2021/09/29 06:37:44;;;;;;;4.10;2.05;;;;;;;17.72;47.49;101097.16;4989217;28;20141;-75
2021/09/29 06:40:13;;;;;;;3.30;2.00;;;;;;;17.74;47.53;101092.38;4981358;28;20046;-74
2021/09/29 06:42:41;;;;;;;4.28;1.90;;;;;;;17.76;47.52;101091.25;4987368;28;20050;-76
2021/09/29 06:45:09;;;;;;;4.13;1.77;;;;;;;17.78;47.79;101108.47;4991142;28;20109;-75
2021/09/29 06:47:38;;;;;;;3.80;1.70;;;;;;;17.80;47.70;101116.53;4987697;28;20100;-75
2021/09/29 06:50:07;;;;;;;4.38;2.00;;;;;;;17.83;47.76;101108.88;4990147;28;20078;-75
2021/09/29 06:52:36;;;;;;;4.93;2.03;;;;;;;17.86;47.75;101107.75;4992478;28;20522;-76
2021/09/29 06:55:04;;;;;;;4.75;2.10;;;;;;;17.86;47.98;101103.13;4988149;28;20137;-75
2021/09/29 06:57:31;;;;;;;5.13;1.80;;;;;;;17.87;48.11;101093.00;4987644;28;20058;-73
2021/09/29 06:59:58;;;;;;;3.35;1.95;;;;;;;17.89;48.16;101107.44;4988297;28;20138;-73
2021/09/29 07:02:25;;;;;;;5.20;2.30;;;;;;;17.90;48.38;101098.19;4984347;28;20292;-72
2021/09/29 07:04:52;;;;;;;4.28;1.83;;;;;;;17.91;48.29;101088.06;4978600;28;20048;-72
2021/09/29 07:07:18;;;;;;;3.72;2.05;;;;;;;17.91;48.39;101077.94;4979107;28;20125;-73
2021/09/29 07:09:45;;;;;;;5.65;2.10;;;;;;;17.92;48.16;101071.44;4989748;28;20559;-73
2021/09/29 07:12:11;;;;;;;4.15;2.00;;;;;;;17.94;48.54;101074.06;4990340;28;20078;-74
2021/09/29 07:14:38;;;;;;;4.43;2.10;;;;;;;17.95;48.36;101078.53;4969848;28;20085;-73
2021/09/29 07:17:05;;;;;;;5.00;2.00;;;;;;;17.96;48.10;101078.38;4988483;28;20090;-73
2021/09/29 07:19:31;;;;;;;3.38;1.90;;;;;;;17.97;48.43;101079.25;4988960;28;20069;-73
2021/09/29 07:21:58;;;;;;;4.25;2.08;;;;;;;17.96;48.16;101086.63;4989220;28;20129;-74
2021/09/29 07:24:24;;;;;;;4.93;1.90;;;;;;;17.98;48.42;101080.97;4966284;28;20046;-74
2021/09/29 07:26:51;;;;;;;3.55;1.92;;;;;;;17.98;48.24;101084.59;4978183;28;20071;-74
2021/09/29 07:29:19;;;;;;;4.97;1.90;;;;;;;17.99;48.60;101089.09;4967433;28;20073;-74
2021/09/29 07:31:46;;;;;;;3.90;2.30;;;;;;;18.00;48.57;101095.44;4987175;28;20429;-74
2021/09/29 07:34:13;;;;;;;4.63;2.10;;;;;;;18.01;48.44;101095.31;4986990;28;20057;-75
2021/09/29 07:36:39;;;;;;;4.60;2.22;;;;;;;18.03;48.87;101100.66;4983685;28;20046;-74
2021/09/29 07:39:07;;;;;;;5.18;2.00;;;;;;;18.04;49.01;101097.75;4987098;28;20398;-75
2021/09/29 07:41:34;;;;;;;4.47;2.28;;;;;;;18.06;48.81;101086.63;4989475;28;20109;-74
2021/09/29 07:44:02;;;;;;;5.05;2.00;;;;;;;18.08;49.05;101081.84;4989983;28;20050;-75
2021/09/29 07:46:29;;;;;;;6.07;2.20;;;;;;;18.07;48.98;101072.75;4990196;28;20563;-75
2021/09/29 07:48:56;;;;;;;5.45;2.30;;;;;;;18.09;48.91;101076.22;4989960;28;20133;-75
2021/09/29 07:51:22;;;;;;;6.07;2.58;;;;;;;18.09;48.97;101067.97;4991153;28;20085;-74
2021/09/29 07:53:49;;;;;;;4.45;2.38;;;;;;;18.09;48.83;101069.84;5005418;28;20057;-75
2021/09/29 07:56:15;;;;;;;4.65;2.08;;;;;;;18.10;49.03;101066.97;5009017;28;20449;-75
2021/09/29 07:58:42;;;;;;;4.78;2.10;;;;;;;18.11;49.46;101067.84;4972121;28;20389;-74
2021/09/29 08:01:08;;;;;;;5.53;2.53;;;;;;;18.12;49.19;101053.06;4990871;28;20077;-75
2021/09/29 08:03:37;;;;;;;5.38;2.00;;;;;;;18.13;48.98;101063.91;4989716;28;20054;-75
2021/09/29 08:06:04;;;;;;;5.18;2.25;;;;;;;18.14;49.09;101051.03;4990182;28;20089;-75
2021/09/29 08:08:30;;;;;;;4.53;2.20;;;;;;;18.16;49.40;101060.00;4992457;28;20612;-75
2021/09/29 08:10:57;;;;;;;5.20;2.20;;;;;;;18.17;49.59;101059.00;5006347;28;20054;-75
2021/09/29 08:13:24;;;;;;;4.32;2.40;;;;;;;18.19;49.30;101063.34;4988330;28;20555;-74
2021/09/29 08:15:50;;;;;;;3.72;2.20;;;;;;;18.21;49.55;101061.28;4972882;28;20050;-75
2021/09/29 08:18:18;;;;;;;4.10;2.40;;;;;;;18.22;49.30;101062.16;4989441;28;20069;-75
2021/09/29 08:20:45;;;;;;;5.88;2.40;;;;;;;18.24;49.20;101062.88;4989644;28;20046;-75
2021/09/29 08:23:23;;;;;;;4.93;2.30;;;;;;;18.24;49.70;101066.50;4989490;28;20046;-75
2021/09/29 08:36:41;;;;;;;3.15;1.80;;;;;;;18.27;49.45;101053.50;4993392;28;20058;-74
2021/09/29 08:39:31;;;;;;;4.07;2.20;;;;;;;18.28;49.49;101055.22;4992447;28;20054;-74
2021/09/29 08:44:51;;;;;;;4.03;2.28;;;;;;;18.30;49.99;101054.03;4992498;28;20425;-74
2021/09/29 08:47:24;;;;;;;4.03;2.05;;;;;;;18.33;49.61;101059.25;4993339;28;20105;-74
2021/09/29 08:52:35;;;;;;;4.65;2.20;;;;;;;18.34;49.74;101054.63;4996595;28;20184;-75
2021/09/29 09:16:59;;;;;;;4.35;2.22;;;;;;;18.32;50.02;101074.00;5000948;28;20062;-74
2021/09/29 09:19:31;;;;;;;3.80;1.92;;;;;;;18.37;50.51;101077.19;4979590;28;20051;-74
2021/09/29 09:22:05;;;;;;;4.32;2.00;;;;;;;18.39;50.50;101074.28;4993496;28;20571;-74
2021/09/29 09:24:34;;;;;;;4.70;2.30;;;;;;;18.40;50.10;101087.03;4992564;28;20516;-74
2021/09/29 09:27:06;;;;;;;4.53;2.20;;;;;;;18.41;50.11;101094.25;4992502;28;20569;-74
2021/09/29 09:29:53;;;;;;;4.63;2.22;;;;;;;18.44;50.58;101102.22;4991806;28;20038;-73
2021/09/29 09:32:25;;;;;;;5.47;2.17;;;;;;;18.45;50.34;101101.19;4974643;28;20441;-74
2021/09/29 09:35:03;;;;;;;4.63;1.60;;;;;;;18.47;50.13;101105.53;4975542;28;20062;-75
2021/09/29 09:37:31;;;;;;;4.13;1.60;;;;;;;18.45;50.03;101110.31;4991404;28;20062;-75
2021/09/29 09:40:09;;;;;;;4.13;1.55;;;;;;;18.48;50.42;101106.41;4988756;28;20050;-75
2021/09/29 09:42:45;;;;;;;3.13;1.60;;;;;;;18.45;50.60;101109.44;4992301;28;20054;-74
2021/09/29 09:45:12;;;;;;;2.97;1.50;;;;;;;18.42;50.42;101116.13;4992671;28;20145;-74
2021/09/29 09:47:43;;;;;;;2.90;1.38;;;;;;;18.44;50.15;101130.59;4990283;28;20058;-74
2021/09/29 09:50:11;;;;;;;4.15;1.58;;;;;;;18.44;50.21;101125.09;4992978;28;20081;-74
2021/09/29 09:52:42;;;;;;;4.03;1.60;;;;;;;18.46;50.43;101117.53;4991584;28;20370;-74
2021/09/29 09:55:15;;;;;;;2.78;1.33;;;;;;;18.46;50.41;101127.66;4991707;28;20456;-74
2021/09/29 09:57:43;;;;;;;2.75;1.17;;;;;;;18.44;50.18;101126.97;4989613;28;20054;-74
2021/09/29 10:00:12;;;;;;;3.10;1.20;;;;;;;18.46;50.62;101119.41;4992612;28;20070;-74
2021/09/29 10:02:44;;;;;;;2.53;1.00;;;;;;;18.46;50.60;101120.28;4991694;28;20124;-74
2021/09/29 10:05:13;;;;;;;2.28;0.80;;;;;;;18.45;50.33;101120.44;4992382;28;20704;-74
2021/09/29 10:07:40;;;;;;;1.88;0.80;;;;;;;18.43;50.51;101116.97;4973677;28;20061;-73
2021/09/29 10:26:24;;;;;;;1.40;0.70;;;;;;;18.36;50.16;101132.34;4991602;28;20054;-74
2021/09/29 10:29:06;;;;;;;1.38;0.68;;;;;;;18.32;50.35;101140.00;4990592;28;20598;-74
2021/09/29 10:34:42;;;;;;;2.20;0.80;;;;;;;18.28;51.11;101122.06;4990910;28;20052;-74
2021/09/29 10:37:26;;;;;;;1.77;0.50;;;;;;;18.25;50.69;101127.84;4991327;28;20061;-74
2021/09/29 10:43:00;;;;;;;1.48;0.77;;;;;;;18.28;51.05;101143.19;4991025;28;20082;-74
2021/09/29 11:29:54;;;;;;;1.38;0.75;;;;;;;18.23;50.96;101188.44;4982317;28;20096;-73
2021/09/29 11:32:47;;;;;;;0.93;0.70;;;;;;;18.30;50.99;101187.88;4989894;28;20516;-73
2021/09/29 11:38:26;;;;;;;2.10;0.90;;;;;;;18.42;50.96;101173.84;4958091;28;20070;-73
2021/09/29 12:11:16;;;;;;;4.40;1.60;;;;;;;19.14;48.57;101213.72;4989594;28;20726;-71
2021/09/29 12:13:52;;;;;;;2.72;1.40;;;;;;;19.15;48.69;101221.84;4971449;28;20049;-71
2021/09/29 12:16:34;;;;;;;2.58;1.67;;;;;;;19.18;48.18;101218.81;4980939;28;20058;-72
2021/09/29 12:19:35;;;;;;;3.03;1.88;;;;;;;19.18;48.95;101218.81;4987268;28;20523;-72
2021/09/29 12:22:08;;;;;;;2.83;1.60;;;;;;;19.19;49.06;101220.50;4974935;28;20497;-73
2021/09/29 12:25:13;;;;;;;2.58;1.70;;;;;;;19.27;48.77;101228.88;4992613;28;20046;-72
2021/09/29 12:30:28;;;;;;;2.90;1.52;;;;;;;19.36;47.95;101227.13;4991527;28;20230;-74
2021/09/29 12:33:33;;;;;;;2.05;1.40;;;;;;;19.46;47.29;101224.34;4991750;28;20412;-73
2021/09/29 12:36:26;;;;;;;3.22;1.65;;;;;;;19.51;47.17;101241.34;4985022;28;20104;-73
2021/09/29 12:38:53;;;;;;;2.95;1.45;;;;;;;19.53;47.32;101240.13;4989278;28;20456;-73
2021/09/29 12:41:20;;;;;;;2.58;1.70;;;;;;;19.59;47.22;101236.81;4993064;28;20122;-74
2021/09/29 12:43:46;;;;;;;3.63;1.58;;;;;;;19.62;47.32;101236.47;4989644;28;20058;-73
2021/09/29 12:46:16;;;;;;;2.97;1.30;;;;;;;19.67;47.44;101230.53;4985660;28;20058;-73
2021/09/29 12:51:59;;;;;;;1.77;1.10;;;;;;;19.79;47.34;101245.81;4984060;28;20070;-72
2021/09/29 12:54:26;;;;;;;1.55;1.10;;;;;;;19.89;46.97;101361.53;4983943;28;20054;-74
2021/09/29 12:56:53;;;;;;;1.50;0.73;;;;;;;19.93;45.81;101374.00;4990636;28;20097;-72
2021/09/29 12:59:19;;;;;;;1.25;0.60;;;;;;;19.94;44.34;101389.50;4990468;28;20501;-73
2021/09/29 13:01:46;;;;;;;1.10;0.40;;;;;;;19.88;43.66;101385.47;4974580;28;20097;-75
2021/09/29 13:04:13;;;;;;;0.82;0.47;;;;;;;19.77;43.93;101382.88;4978393;28;20050;-73
2021/09/29 13:06:41;;;;;;;0.85;0.50;;;;;;;19.66;43.54;101383.94;4990848;28;20347;-74
2021/09/29 13:09:07;;;;;;;0.95;0.40;;;;;;;19.50;43.48;101363.53;4989644;28;20077;-73
2021/09/29 13:11:34;;;;;;;1.65;0.55;;;;;;;19.35;43.19;101365.84;4975165;28;20050;-75
2021/09/29 13:14:01;;;;;;;1.80;0.70;;;;;;;19.20;43.32;101354.38;4990950;28;20395;-74
2021/09/29 13:16:27;;;;;;;1.42;0.52;;;;;;;19.04;43.54;101345.84;4998388;28;20073;-74
2021/09/29 13:18:58;;;;;;;0.63;0.40;;;;;;;18.90;44.01;101355.41;5002742;28;20054;-75
2021/09/29 13:21:31;;;;;;;1.98;0.68;;;;;;;18.78;44.54;101355.69;5009676;28;20135;-75
2021/09/29 13:37:37;;;;;;;1.13;0.60;;;;;;;18.35;45.90;101370.63;4990020;28;20060;-75
2021/09/29 13:40:05;;;;;;;1.15;0.57;;;;;;;18.36;46.04;101380.63;4974415;28;20108;-74
2021/09/29 13:42:32;;;;;;;2.13;0.70;;;;;;;18.35;45.97;101381.63;4990558;28;20093;-74
2021/09/29 13:44:59;;;;;;;0.82;0.70;;;;;;;18.35;46.51;101389.00;4991008;28;20477;-73
2021/09/29 13:47:26;;;;;;;1.75;0.70;;;;;;;18.37;46.63;101392.47;4988505;28;20090;-73
2021/09/29 13:49:53;;;;;;;0.95;0.70;;;;;;;18.36;46.33;101397.13;4992384;28;20061;-74
2021/09/29 13:52:23;;;;;;;0.90;0.60;;;;;;;18.37;46.14;101401.59;4993212;28;20042;-75
2021/09/29 13:54:52;;;;;;;1.30;0.73;;;;;;;18.36;46.42;101405.38;4992360;28;20137;-74
2021/09/29 13:57:24;;;;;;;0.95;0.50;;;;;;;18.38;46.47;101405.19;4990419;28;20089;-72
2021/09/29 14:29:23;;;;;;;1.65;0.50;;;;;;;18.63;46.59;101437.75;4987859;28;20046;-72
2021/09/29 14:32:02;;;;;;;1.58;0.80;;;;;;;18.65;46.77;101443.97;4991606;28;20050;-73
2021/09/29 14:34:28;;;;;;;1.42;0.60;;;;;;;18.67;46.30;101432.84;4984844;28;20124;-73
2021/09/29 14:36:55;;;;;;;2.50;0.70;;;;;;;18.70;46.25;101436.16;4990468;28;20069;-72
2021/09/29 14:39:23;;;;;;;1.73;0.60;;;;;;;18.71;46.11;101443.41;4989249;28;20715;-72
2021/09/29 14:41:49;;;;;;;2.25;0.90;;;;;;;18.75;46.39;101446.75;4991256;28;20077;-72